Time;durP1;ratioP1;P1;durP2;ratioP2;P2;SDS_P1;SDS_P2;PMS_P1;PMS_P2;Temp;Humidity;BMP_temperature;BMP_pressure;BME280_temperature;BME280_humidity;BME280_pressure;Samples;Min_cycle;Max_cycle;Signal;HPM_P1;HPM_P2
2021/11/16 00:01:20;;;;;;;1.93;1.83;;;11.60;84.60;;;;;;5079583;28;20217;-71
2021/11/16 00:03:48;;;;;;;2.73;2.53;;;11.60;84.70;;;;;;5078800;28;20210;-71
2021/11/16 00:06:15;;;;;;;1.47;1.47;;;11.50;84.10;;;;;;5077591;28;20684;-71
2021/11/16 00:08:43;;;;;;;5.10;3.27;;;11.50;83.90;;;;;;5075797;28;20217;-70
2021/11/16 00:11:10;;;;;;;6.93;2.60;;;11.50;84.10;;;;;;5075896;28;20217;-70
2021/11/16 00:13:37;;;;;;;5.40;1.60;;;11.50;84.00;;;;;;5084524;28;20609;-70
2021/11/16 00:16:05;;;;;;;1.80;1.70;;;11.50;84.20;;;;;;5081480;28;20229;-70
2021/11/16 00:18:33;;;;;;;1.37;1.27;;;11.40;84.30;;;;;;5080617;28;20625;-70
2021/11/16 00:21:02;;;;;;;9.23;2.37;;;11.40;84.30;;;;;;5082382;28;20213;-70
2021/11/16 00:23:36;;;;;;;7.20;2.37;;;11.40;84.20;;;;;;5089261;28;20233;-70
2021/11/16 00:26:06;;;;;;;4.23;2.90;;;11.40;84.00;;;;;;5089355;28;20542;-70
2021/11/16 00:28:34;;;;;;;1.27;1.27;;;11.40;84.00;;;;;;5090809;28;20557;-70
2021/11/16 00:31:02;;;;;;;2.70;2.50;;;11.30;84.10;;;;;;5083005;28;20217;-70
2021/11/16 00:33:31;;;;;;;2.53;2.23;;;11.30;84.10;;;;;;5084085;28;20558;-70
2021/11/16 00:35:58;;;;;;;2.53;2.33;;;11.30;83.90;;;;;;5085625;28;20221;-70
2021/11/16 00:38:26;;;;;;;2.23;1.57;;;11.30;84.10;;;;;;5084275;28;20249;-70
2021/11/16 00:40:54;;;;;;;1.77;1.37;;;11.30;84.20;;;;;;5082799;28;20524;-70
2021/11/16 00:43:22;;;;;;;4.57;3.67;;;11.30;84.40;;;;;;5083712;28;20213;-70
2021/11/16 00:45:49;;;;;;;2.37;2.17;;;11.30;84.50;;;;;;5085174;28;20221;-70
2021/11/16 00:48:20;;;;;;;4.30;3.90;;;11.30;84.40;;;;;;5085912;28;20236;-70
2021/11/16 00:50:51;;;;;;;2.30;2.13;;;11.20;84.50;;;;;;5081961;28;20209;-70
2021/11/16 00:53:19;;;;;;;10.50;2.93;;;11.20;84.60;;;;;;5086256;28;20213;-70
2021/11/16 00:55:47;;;;;;;3.07;1.90;;;11.20;84.80;;;;;;5082688;28;20549;-70
2021/11/16 00:58:14;;;;;;;2.70;2.47;;;11.10;85.10;;;;;;5085493;28;20525;-70
2021/11/16 01:00:43;;;;;;;2.67;1.60;;;11.10;85.40;;;;;;5088998;28;20205;-70
2021/11/16 01:03:12;;;;;;;2.97;2.77;;;11.10;85.80;;;;;;5084104;28;20607;-71
2021/11/16 01:05:40;;;;;;;2.13;1.93;;;11.10;85.90;;;;;;5079863;28;20492;-71
2021/11/16 01:08:11;;;;;;;3.17;2.87;;;11.10;86.20;;;;;;5081073;28;20219;-71
2021/11/16 01:10:41;;;;;;;1.60;1.47;;;11.10;86.40;;;;;;5087413;28;20224;-71
2021/11/16 01:13:08;;;;;;;1.17;1.03;;;11.10;86.70;;;;;;5079042;28;20210;-71
2021/11/16 01:15:38;;;;;;;8.30;3.73;;;11.10;87.00;;;;;;5078748;28;20210;-71
2021/11/16 01:18:05;;;;;;;2.93;2.17;;;11.00;87.20;;;;;;5083546;28;20303;-70
2021/11/16 01:20:33;;;;;;;3.40;2.20;;;11.00;87.40;;;;;;5086505;28;20212;-70
2021/11/16 01:23:02;;;;;;;0.97;0.97;;;11.00;87.60;;;;;;5077206;28;20221;-70
2021/11/16 01:25:29;;;;;;;8.40;2.53;;;11.00;87.90;;;;;;5079154;28;20221;-70
2021/11/16 01:28:00;;;;;;;5.10;4.50;;;11.00;88.10;;;;;;5087086;28;20260;-70
2021/11/16 01:30:30;;;;;;;2.43;1.73;;;10.90;88.20;;;;;;5077151;28;20212;-70
2021/11/16 01:33:18;;;;;;;2.30;2.20;;;10.90;88.20;;;;;;5074833;28;20228;-70
2021/11/16 01:35:46;;;;;;;1.43;1.43;;;10.90;88.10;;;;;;5075786;28;20221;-70
2021/11/16 01:38:16;;;;;;;2.57;1.53;;;10.90;88.00;;;;;;5076064;28;20280;-70
2021/11/16 01:40:45;;;;;;;3.47;1.77;;;10.80;87.90;;;;;;5085065;28;20209;-70
2021/11/16 01:43:14;;;;;;;5.50;2.73;;;10.90;87.80;;;;;;5081018;28;20271;-70
2021/11/16 01:45:55;;;;;;;2.20;1.60;;;10.80;87.90;;;;;;5079722;28;20213;-70
2021/11/16 01:48:24;;;;;;;2.37;2.03;;;10.80;87.90;;;;;;5085157;28;20206;-70
2021/11/16 01:50:51;;;;;;;1.67;1.30;;;10.80;87.90;;;;;;5085526;28;20213;-70
2021/11/16 01:53:19;;;;;;;4.60;3.33;;;10.80;87.70;;;;;;5083351;28;20295;-70
2021/11/16 01:55:46;;;;;;;2.27;1.80;;;10.80;87.70;;;;;;5080751;28;20210;-70
2021/11/16 01:58:13;;;;;;;12.63;4.10;;;10.70;87.90;;;;;;5080853;28;20240;-70
2021/11/16 02:00:44;;;;;;;1.43;1.33;;;10.60;88.10;;;;;;5083189;28;20492;-70
2021/11/16 02:03:12;;;;;;;9.40;3.33;;;10.60;88.40;;;;;;5086014;28;20266;-70
2021/11/16 02:05:45;;;;;;;1.67;1.57;;;10.60;88.70;;;;;;5087896;28;20209;-70
2021/11/16 02:08:14;;;;;;;2.63;2.30;;;10.60;89.00;;;;;;5087649;28;20221;-70
2021/11/16 02:10:44;;;;;;;6.73;3.10;;;10.50;89.20;;;;;;5087117;28;20212;-70
2021/11/16 02:13:11;;;;;;;1.83;1.77;;;10.50;89.30;;;;;;5088614;28;20205;-70
2021/11/16 02:15:39;;;;;;;1.50;1.40;;;10.50;89.50;;;;;;5092165;28;20632;-70
2021/11/16 02:18:08;;;;;;;2.93;2.73;;;10.40;89.60;;;;;;5086306;28;20687;-70
2021/11/16 02:20:38;;;;;;;0.90;0.90;;;10.40;89.90;;;;;;5089145;28;20274;-70
2021/11/16 02:23:06;;;;;;;1.57;1.47;;;10.40;90.00;;;;;;5087203;28;20213;-70
2021/11/16 02:25:34;;;;;;;1.90;1.37;;;10.30;90.10;;;;;;5083098;28;20631;-70
2021/11/16 02:28:02;;;;;;;4.07;3.00;;;10.30;90.10;;;;;;5083747;28;20279;-70
2021/11/16 02:30:30;;;;;;;2.00;1.90;;;10.30;90.10;;;;;;5082933;28;20264;-70
2021/11/16 02:32:57;;;;;;;1.00;1.00;;;10.30;90.10;;;;;;5081489;28;20633;-71
2021/11/16 02:35:25;;;;;;;7.53;2.83;;;10.30;90.00;;;;;;5079881;28;20209;-71
2021/11/16 02:37:53;;;;;;;2.33;2.13;;;10.40;90.10;;;;;;5088051;28;20544;-71
2021/11/16 02:40:21;;;;;;;4.17;2.87;;;10.30;90.40;;;;;;5088797;28;20237;-71
2021/11/16 02:42:49;;;;;;;5.00;3.37;;;10.40;90.10;;;;;;5078271;28;20206;-71
2021/11/16 02:45:18;;;;;;;2.03;1.90;;;10.40;90.10;;;;;;5078423;28;20700;-71
2021/11/16 02:47:46;;;;;;;2.50;2.40;;;10.40;90.10;;;;;;5090223;28;20638;-70
2021/11/16 02:50:15;;;;;;;2.97;2.77;;;10.50;90.20;;;;;;5084899;28;20213;-70
2021/11/16 02:52:42;;;;;;;2.80;2.53;;;10.50;90.10;;;;;;5081750;28;20220;-70
2021/11/16 02:55:10;;;;;;;2.03;1.87;;;10.60;90.20;;;;;;5090876;28;20274;-70
2021/11/16 02:57:38;;;;;;;5.83;2.10;;;10.60;90.20;;;;;;5092137;28;20221;-70
2021/11/16 03:00:14;;;;;;;3.40;1.83;;;10.60;90.20;;;;;;5081366;28;20233;-70
2021/11/16 03:02:43;;;;;;;2.77;2.20;;;10.70;90.20;;;;;;5090788;28;20244;-70
2021/11/16 03:05:11;;;;;;;1.13;0.90;;;10.70;90.10;;;;;;5082940;28;20218;-70
2021/11/16 03:07:46;;;;;;;3.13;2.33;;;10.70;90.10;;;;;;5091444;28;20212;-70
2021/11/16 03:10:17;;;;;;;2.17;2.07;;;10.70;90.10;;;;;;5091662;28;20217;-70
2021/11/16 03:12:45;;;;;;;6.90;2.27;;;10.70;90.10;;;;;;5086753;28;20213;-70
2021/11/16 03:15:12;;;;;;;2.73;2.20;;;10.70;90.10;;;;;;5082549;28;20222;-70
2021/11/16 03:17:39;;;;;;;2.93;2.70;;;10.70;90.40;;;;;;5085436;28;20213;-71
2021/11/16 03:20:12;;;;;;;1.80;1.70;;;10.70;90.20;;;;;;5087601;28;20233;-71
2021/11/16 03:22:44;;;;;;;2.97;2.67;;;10.70;90.20;;;;;;5084670;28;20239;-71
2021/11/16 03:25:11;;;;;;;2.07;1.87;;;10.70;90.20;;;;;;5085120;28;20654;-71
2021/11/16 03:27:40;;;;;;;3.07;2.87;;;10.70;90.20;;;;;;5085844;28;20210;-71
2021/11/16 03:30:08;;;;;;;2.33;1.50;;;10.70;90.30;;;;;;5086775;28;20231;-71
2021/11/16 03:32:36;;;;;;;1.03;1.03;;;10.70;90.30;;;;;;5086323;28;20673;-71
2021/11/16 03:35:06;;;;;;;4.40;2.43;;;10.70;90.30;;;;;;5088475;28;20228;-70
2021/11/16 03:37:49;;;;;;;2.37;2.20;;;10.70;90.40;;;;;;5088383;28;20225;-70
2021/11/16 03:40:17;;;;;;;3.63;3.00;;;10.70;90.40;;;;;;5089117;28;20247;-71
2021/11/16 03:42:47;;;;;;;3.30;2.10;;;10.70;90.40;;;;;;5089088;28;20553;-71
2021/11/16 03:45:16;;;;;;;2.67;1.90;;;10.70;90.30;;;;;;5090479;28;20209;-71
2021/11/16 03:47:44;;;;;;;2.57;1.87;;;10.70;90.40;;;;;;5080637;28;20232;-71
2021/11/16 03:50:16;;;;;;;1.47;1.23;;;10.70;90.40;;;;;;5083118;28;20296;-71
2021/11/16 03:52:45;;;;;;;1.93;1.83;;;10.70;90.40;;;;;;5080070;28;20220;-71
2021/11/16 03:55:12;;;;;;;2.47;2.27;;;10.70;90.40;;;;;;5079244;28;20209;-71
2021/11/16 03:57:39;;;;;;;1.57;1.47;;;10.70;90.40;;;;;;5078644;28;20208;-71
2021/11/16 04:00:10;;;;;;;1.70;1.60;;;10.70;90.50;;;;;;5080045;28;20229;-71
2021/11/16 04:02:38;;;;;;;8.47;3.03;;;10.70;90.50;;;;;;5077111;28;20210;-71
2021/11/16 04:05:06;;;;;;;1.00;1.00;;;10.70;90.50;;;;;;5078337;28;20643;-71
2021/11/16 04:07:34;;;;;;;2.57;2.37;;;10.70;90.50;;;;;;5076294;28;20213;-71
2021/11/16 04:10:03;;;;;;;2.50;2.07;;;10.70;90.50;;;;;;5076394;28;20239;-71
2021/11/16 04:12:30;;;;;;;0.93;0.90;;;10.70;90.80;;;;;;5076638;28;20304;-71
2021/11/16 04:14:57;;;;;;;2.37;1.47;;;10.80;90.50;;;;;;5080080;28;20213;-71
2021/11/16 04:17:24;;;;;;;1.87;1.77;;;10.80;90.40;;;;;;5086442;28;20225;-71
2021/11/16 04:19:51;;;;;;;1.73;1.63;;;10.80;90.40;;;;;;5093924;28;20232;-71
2021/11/16 04:22:18;;;;;;;3.87;3.57;;;10.80;90.40;;;;;;5078686;28;20206;-71
2021/11/16 04:24:45;;;;;;;2.53;2.20;;;10.80;90.30;;;;;;5078696;28;20213;-71
2021/11/16 04:27:12;;;;;;;2.30;2.20;;;10.80;90.20;;;;;;5079858;28;20647;-71
2021/11/16 04:29:39;;;;;;;5.50;2.20;;;10.80;90.20;;;;;;5083332;28;20226;-71
2021/11/16 04:32:06;;;;;;;2.73;2.33;;;10.80;90.20;;;;;;5083361;28;20221;-71
2021/11/16 04:34:34;;;;;;;3.37;3.07;;;10.80;90.10;;;;;;5089291;28;20665;-71
2021/11/16 04:37:02;;;;;;;1.87;1.77;;;10.80;90.10;;;;;;5087345;28;20213;-70
2021/11/16 04:39:29;;;;;;;1.90;1.80;;;10.80;90.10;;;;;;5087050;28;20256;-71
2021/11/16 04:41:56;;;;;;;4.27;1.90;;;10.80;90.10;;;;;;5083358;28;20219;-71
2021/11/16 04:44:23;;;;;;;3.40;2.43;;;10.80;90.20;;;;;;5085429;28;20631;-71
2021/11/16 04:46:50;;;;;;;3.13;1.80;;;10.80;90.20;;;;;;5082660;28;20592;-71
2021/11/16 04:49:32;;;;;;;2.20;2.00;;;10.80;90.20;;;;;;5085625;28;20214;-71
2021/11/16 04:52:48;;;;;;;0.50;0.40;;;10.70;90.20;;;;;;5084171;28;20293;-71
2021/11/16 05:03:24;;;;;;;3.23;2.10;;;10.70;90.30;;;;;;5082512;28;20549;-71
2021/11/16 05:05:51;;;;;;;2.47;1.37;;;10.70;90.30;;;;;;5079415;28;20209;-71
2021/11/16 05:08:18;;;;;;;2.10;2.00;;;10.70;90.30;;;;;;5093210;28;20270;-71
2021/11/16 05:10:45;;;;;;;2.37;1.63;;;10.70;90.30;;;;;;5089312;28;20223;-71
2021/11/16 05:13:12;;;;;;;1.23;1.23;;;10.60;90.30;;;;;;5091378;28;20212;-71
2021/11/16 05:15:43;;;;;;;1.60;1.50;;;10.70;90.30;;;;;;5090784;28;20220;-71
2021/11/16 05:18:10;;;;;;;0.83;0.83;;;10.70;90.30;;;;;;5078745;28;20334;-71
2021/11/16 05:20:38;;;;;;;2.43;2.33;;;10.70;90.30;;;;;;5075806;28;20241;-71
2021/11/16 05:23:06;;;;;;;3.67;1.67;;;10.60;90.30;;;;;;5076555;28;20282;-71
2021/11/16 05:25:34;;;;;;;6.83;3.17;;;10.60;90.30;;;;;;5074424;28;20221;-71
2021/11/16 05:28:03;;;;;;;5.00;1.90;;;10.60;90.30;;;;;;5074242;28;20619;-71
2021/11/16 05:30:30;;;;;;;1.67;1.57;;;10.60;90.30;;;;;;5077132;28;20217;-71
2021/11/16 05:32:57;;;;;;;1.57;1.47;;;10.60;90.30;;;;;;5076230;28;20214;-71
2021/11/16 05:35:24;;;;;;;2.87;2.67;;;10.60;90.30;;;;;;5081888;28;20217;-71
2021/11/16 05:37:51;;;;;;;1.60;1.50;;;10.70;90.30;;;;;;5091944;28;20649;-71
2021/11/16 05:40:18;;;;;;;1.00;1.00;;;10.60;90.30;;;;;;5091307;28;20297;-71
2021/11/16 05:42:45;;;;;;;1.97;1.87;;;10.60;90.30;;;;;;5090277;28;20215;-71
2021/11/16 05:45:12;;;;;;;3.00;2.80;;;10.70;90.70;;;;;;5080743;28;20627;-71
2021/11/16 05:47:41;;;;;;;2.30;1.20;;;10.60;90.40;;;;;;5083676;28;20221;-71
2021/11/16 05:50:10;;;;;;;4.17;1.47;;;10.70;90.40;;;;;;5089358;28;20221;-71
2021/11/16 05:52:38;;;;;;;2.10;2.00;;;10.70;90.40;;;;;;5087584;28;20671;-71
2021/11/16 05:55:10;;;;;;;3.60;1.87;;;10.70;90.50;;;;;;5074070;28;20213;-71
2021/11/16 05:57:37;;;;;;;1.53;1.17;;;10.70;90.50;;;;;;5087280;28;20216;-71
2021/11/16 06:00:07;;;;;;;8.37;3.17;;;10.70;90.50;;;;;;5085863;28;20228;-71
2021/11/16 06:02:36;;;;;;;2.43;1.63;;;10.70;90.50;;;;;;5086323;28;20202;-71
2021/11/16 06:05:04;;;;;;;0.53;0.53;;;10.70;90.60;;;;;;5083456;28;20210;-71
2021/11/16 06:07:31;;;;;;;2.77;2.67;;;10.70;90.60;;;;;;5084416;28;20220;-71
2021/11/16 06:09:58;;;;;;;1.60;1.50;;;10.70;90.60;;;;;;5085302;28;20213;-71
2021/11/16 06:12:25;;;;;;;1.93;1.80;;;10.70;90.60;;;;;;5085415;28;20215;-71
2021/11/16 06:14:52;;;;;;;3.00;2.00;;;10.70;90.60;;;;;;5085054;28;20249;-71
2021/11/16 06:17:20;;;;;;;1.27;1.17;;;10.70;90.60;;;;;;5086431;28;20205;-71
2021/11/16 06:19:47;;;;;;;2.60;2.40;;;10.70;90.60;;;;;;5086515;28;20241;-71
2021/11/16 06:22:15;;;;;;;1.53;1.43;;;10.70;90.60;;;;;;5087708;28;20217;-71
2021/11/16 06:24:42;;;;;;;0.70;0.70;;;10.70;90.70;;;;;;5080541;28;20210;-71
2021/11/16 06:27:09;;;;;;;1.17;1.17;;;10.70;90.60;;;;;;5079319;28;20209;-71
2021/11/16 06:29:36;;;;;;;5.87;2.07;;;10.70;90.60;;;;;;5085299;28;20283;-71
2021/11/16 06:32:08;;;;;;;2.13;1.70;;;10.70;90.60;;;;;;5084199;28;20221;-71
2021/11/16 06:34:36;;;;;;;1.13;1.03;;;10.70;90.60;;;;;;5077962;28;20210;-71
2021/11/16 06:37:07;;;;;;;3.67;1.63;;;10.70;90.60;;;;;;5082141;28;20216;-71
2021/11/16 06:39:34;;;;;;;2.17;2.03;;;10.70;90.60;;;;;;5076896;28;20258;-71
2021/11/16 06:42:02;;;;;;;2.50;2.30;;;10.70;90.60;;;;;;5075597;28;20219;-71
2021/11/16 06:44:29;;;;;;;1.63;1.53;;;10.70;90.60;;;;;;5077573;28;20553;-71
2021/11/16 06:46:57;;;;;;;2.97;2.67;;;10.80;90.60;;;;;;5077964;28;20599;-71
2021/11/16 06:49:24;;;;;;;0.80;0.80;;;10.80;90.60;;;;;;5084988;28;20552;-71
2021/11/16 06:51:54;;;;;;;3.30;2.10;;;10.80;90.40;;;;;;5082888;28;20355;-71
2021/11/16 06:54:24;;;;;;;1.90;1.80;;;10.80;90.30;;;;;;5085792;28;20279;-71
2021/11/16 06:56:52;;;;;;;6.23;1.90;;;10.80;90.20;;;;;;5078711;28;20213;-71
2021/11/16 06:59:22;;;;;;;2.53;1.77;;;10.80;90.10;;;;;;5081160;28;20236;-71
2021/11/16 07:01:51;;;;;;;5.77;3.83;;;10.80;89.90;;;;;;5087602;28;20210;-71
2021/11/16 07:04:19;;;;;;;2.83;2.30;;;10.80;89.50;;;;;;5085696;28;20205;-71
2021/11/16 07:06:48;;;;;;;2.07;1.70;;;10.80;89.60;;;;;;5081008;28;20206;-71
2021/11/16 07:09:17;;;;;;;1.63;1.63;;;10.80;89.70;;;;;;5094802;28;20248;-71
2021/11/16 07:11:47;;;;;;;4.43;2.33;;;10.80;89.80;;;;;;5092113;28;20224;-71
2021/11/16 07:14:20;;;;;;;0.70;0.70;;;10.90;89.80;;;;;;5086477;28;20283;-71
2021/11/16 07:16:53;;;;;;;0.70;0.70;;;10.90;89.80;;;;;;5083676;28;20218;-71
2021/11/16 07:19:55;;;;;;;2.30;2.20;;;10.90;89.50;;;;;;5090591;28;20282;-71
2021/11/16 07:22:31;;;;;;;13.67;1.83;;;11.00;89.00;;;;;;5084432;28;20558;-71
2021/11/16 07:25:04;;;;;;;4.80;3.27;;;11.00;88.40;;;;;;5085751;28;20274;-71
2021/11/16 07:27:40;;;;;;;19.10;3.13;;;11.00;87.80;;;;;;5085798;28;20214;-71
2021/11/16 07:30:14;;;;;;;2.83;1.43;;;11.00;87.40;;;;;;5085882;28;20212;-71
2021/11/16 07:32:57;;;;;;;3.43;2.43;;;11.10;86.90;;;;;;5091736;28;20647;-71
2021/11/16 07:35:29;;;;;;;6.07;2.00;;;11.10;86.80;;;;;;5086811;28;20216;-71
2021/11/16 07:38:00;;;;;;;4.17;1.93;;;11.10;86.90;;;;;;5076941;28;20619;-71
2021/11/16 07:40:29;;;;;;;1.37;1.37;;;11.20;86.80;;;;;;5080738;28;20242;-71
2021/11/16 07:43:00;;;;;;;0.43;0.43;;;11.10;86.40;;;;;;5080971;28;20209;-71
2021/11/16 07:45:43;;;;;;;1.60;1.50;;;11.20;86.20;;;;;;5089320;28;20302;-71
2021/11/16 07:48:13;;;;;;;1.97;1.87;;;11.20;86.10;;;;;;5092449;28;20215;-71
2021/11/16 07:50:46;;;;;;;3.50;2.80;;;11.20;85.70;;;;;;5085274;28;20225;-71
2021/11/16 07:53:24;;;;;;;4.80;2.70;;;11.30;86.50;;;;;;5091567;28;20256;-71
2021/11/16 07:55:51;;;;;;;2.40;1.97;;;11.30;85.90;;;;;;5084425;28;20217;-71
2021/11/16 07:58:20;;;;;;;2.20;2.03;;;11.30;86.10;;;;;;5086551;28;20224;-71
2021/11/16 08:00:49;;;;;;;7.60;2.30;;;11.30;86.10;;;;;;5092640;28;20527;-71
2021/11/16 08:03:23;;;;;;;3.40;2.57;;;11.30;86.10;;;;;;5085589;28;20210;-71
2021/11/16 08:09:16;;;;;;;3.00;1.07;;;11.30;86.50;;;;;;5034744;28;20648;-71
2021/11/16 08:11:51;;;;;;;1.57;1.47;;;11.30;86.70;;;;;;5017806;28;20211;-71
2021/11/16 08:14:19;;;;;;;3.57;2.13;;;11.30;86.70;;;;;;5068733;28;20299;-71
2021/11/16 08:16:57;;;;;;;3.07;1.90;;;11.30;86.90;;;;;;5083395;28;20220;-71
2021/11/16 08:19:31;;;;;;;1.17;1.00;;;11.30;87.00;;;;;;5085315;28;20209;-71
2021/11/16 08:22:02;;;;;;;7.63;3.50;;;11.30;87.20;;;;;;5085822;28;20278;-71
2021/11/16 08:24:33;;;;;;;1.47;1.37;;;11.40;87.30;;;;;;5087135;28;20274;-71
2021/11/16 08:27:02;;;;;;;1.53;1.43;;;11.40;87.50;;;;;;5076200;28;20218;-71
2021/11/16 08:29:38;;;;;;;1.97;1.37;;;11.50;87.70;;;;;;5080539;28;20230;-71
2021/11/16 08:32:10;;;;;;;2.53;2.40;;;11.50;87.80;;;;;;5079251;28;20675;-71
2021/11/16 08:34:42;;;;;;;2.30;2.10;;;11.50;87.80;;;;;;5084666;28;20219;-71
2021/11/16 08:37:11;;;;;;;1.03;0.97;;;11.50;88.00;;;;;;5075708;28;20210;-71
2021/11/16 08:39:52;;;;;;;4.13;2.13;;;11.60;88.10;;;;;;5085289;28;20306;-71
2021/11/16 08:42:32;;;;;;;3.33;1.50;;;11.60;88.10;;;;;;5082864;28;20213;-71
2021/11/16 08:45:07;;;;;;;7.50;4.03;;;11.60;88.00;;;;;;5086869;28;20213;-71
2021/11/16 08:47:38;;;;;;;2.70;2.47;;;11.70;88.10;;;;;;5083930;28;20565;-71
2021/11/16 08:50:34;;;;;;;2.83;2.30;;;11.70;88.20;;;;;;5085059;28;20279;-71
2021/11/16 08:53:08;;;;;;;1.90;1.77;;;11.70;88.10;;;;;;5085544;28;20267;-71
2021/11/16 08:55:37;;;;;;;7.87;4.03;;;11.80;88.10;;;;;;5083170;28;20556;-71
2021/11/16 08:58:14;;;;;;;4.10;3.10;;;11.80;88.30;;;;;;5083256;28;20213;-71
2021/11/16 09:00:43;;;;;;;1.97;1.87;;;11.90;88.20;;;;;;5085676;28;20232;-71
2021/11/16 09:03:18;;;;;;;5.00;1.70;;;11.90;88.10;;;;;;5075674;28;20619;-71
2021/11/16 09:05:48;;;;;;;3.00;2.53;;;12.00;88.20;;;;;;5078530;28;20205;-71
2021/11/16 09:08:27;;;;;;;4.23;3.83;;;12.10;88.20;;;;;;5086114;28;20218;-71
2021/11/16 09:11:16;;;;;;;2.43;2.23;;;12.10;88.00;;;;;;5084921;28;20330;-70
2021/11/16 09:13:46;;;;;;;8.10;2.40;;;12.20;87.30;;;;;;5082888;28;20214;-70
2021/11/16 09:16:16;;;;;;;1.47;1.37;;;12.20;87.30;;;;;;5077803;28;20210;-70
2021/11/16 09:18:53;;;;;;;2.97;1.33;;;12.20;87.50;;;;;;5077653;28;20294;-70
2021/11/16 09:21:26;;;;;;;1.60;1.50;;;12.20;87.50;;;;;;5087413;28;20241;-70
2021/11/16 09:24:06;;;;;;;3.40;2.37;;;12.30;87.30;;;;;;5084977;28;20573;-70
2021/11/16 09:26:51;;;;;;;1.20;1.20;;;12.20;86.30;;;;;;5074687;28;20217;-70
2021/11/16 09:29:22;;;;;;;1.00;1.00;;;12.30;86.20;;;;;;5077889;28;20236;-70
2021/11/16 09:31:59;;;;;;;3.60;1.80;;;12.30;86.50;;;;;;5074586;28;20631;-70
2021/11/16 09:34:35;;;;;;;2.23;1.83;;;12.30;86.30;;;;;;5077188;28;20205;-71
2021/11/16 09:37:12;;;;;;;3.97;2.30;;;12.30;86.20;;;;;;5075521;28;20279;-71
2021/11/16 09:39:44;;;;;;;6.43;3.90;;;12.30;86.50;;;;;;5085656;28;20237;-71
2021/11/16 09:42:28;;;;;;;2.03;1.93;;;12.40;86.50;;;;;;5080612;28;20241;-71
2021/11/16 09:45:19;;;;;;;3.57;2.63;;;12.40;86.30;;;;;;5077697;28;20212;-71
2021/11/16 09:47:46;;;;;;;5.87;2.80;;;12.40;85.80;;;;;;5080291;28;20205;-71
2021/11/16 09:50:19;;;;;;;4.17;2.33;;;12.40;86.00;;;;;;5083637;28;20213;-71
2021/11/16 09:52:51;;;;;;;3.20;2.87;;;12.40;86.20;;;;;;5083004;28;20653;-71
2021/11/16 09:55:24;;;;;;;6.20;5.43;;;12.40;86.30;;;;;;5084164;28;20217;-71
2021/11/16 09:57:57;;;;;;;2.57;2.37;;;12.40;86.40;;;;;;5085757;28;20217;-71
2021/11/16 10:00:36;;;;;;;6.67;3.70;;;12.40;86.50;;;;;;5082695;28;20278;-71
2021/11/16 10:03:16;;;;;;;3.60;1.60;;;12.50;86.50;;;;;;5081888;28;20295;-71
2021/11/16 10:05:48;;;;;;;2.13;2.03;;;12.50;86.50;;;;;;5088951;28;20267;-71
2021/11/16 10:08:17;;;;;;;4.70;3.03;;;12.50;86.10;;;;;;5090971;28;20212;-71
2021/11/16 10:10:49;;;;;;;2.53;2.30;;;12.60;86.10;;;;;;5082128;28;20218;-71
2021/11/16 10:13:23;;;;;;;4.43;1.70;;;12.60;86.10;;;;;;5088023;28;20209;-71
2021/11/16 10:15:53;;;;;;;2.87;2.67;;;12.60;86.30;;;;;;5072268;28;20222;-71
2021/11/16 10:18:23;;;;;;;1.87;1.77;;;12.60;86.20;;;;;;5081606;28;20213;-71
2021/11/16 10:20:52;;;;;;;20.97;4.10;;;12.70;86.30;;;;;;5077162;28;20620;-71
2021/11/16 10:23:31;;;;;;;3.50;2.23;;;12.70;86.00;;;;;;5083635;28;20523;-71
2021/11/16 10:26:00;;;;;;;3.70;2.90;;;12.70;85.70;;;;;;5091095;28;20233;-71
2021/11/16 10:28:31;;;;;;;2.70;1.43;;;12.70;85.40;;;;;;5089429;28;20224;-71
2021/11/16 10:30:59;;;;;;;0.93;0.93;;;12.70;85.60;;;;;;5084205;28;20301;-71
2021/11/16 10:33:32;;;;;;;2.30;2.20;;;12.70;85.70;;;;;;5078168;28;20378;-72
2021/11/16 10:35:59;;;;;;;5.13;1.87;;;12.80;85.80;;;;;;5085366;28;20240;-71
2021/11/16 10:38:35;;;;;;;3.37;3.13;;;12.80;85.90;;;;;;5087953;28;20259;-71
2021/11/16 10:41:09;;;;;;;4.50;2.93;;;12.80;85.90;;;;;;5079103;28;20255;-71
2021/11/16 10:43:39;;;;;;;4.10;2.47;;;12.80;85.90;;;;;;5081101;28;20210;-71
2021/11/16 10:46:08;;;;;;;5.73;1.93;;;12.80;86.10;;;;;;5083382;28;20531;-71
2021/11/16 10:48:37;;;;;;;7.43;4.07;;;12.80;86.30;;;;;;5078703;28;20248;-71
2021/11/16 10:51:08;;;;;;;2.90;2.20;;;12.80;86.40;;;;;;5078650;28;20219;-71
2021/11/16 10:53:36;;;;;;;2.07;1.93;;;12.70;86.10;;;;;;5076622;28;20222;-71
2021/11/16 10:56:06;;;;;;;9.77;3.77;;;12.70;86.40;;;;;;5075106;28;20222;-71
2021/11/16 10:58:38;;;;;;;1.73;1.33;;;12.70;86.70;;;;;;5076107;28;20217;-71
2021/11/16 11:01:13;;;;;;;2.83;1.33;;;12.80;86.90;;;;;;5079819;28;20260;-71
2021/11/16 11:03:51;;;;;;;1.40;0.97;;;12.80;87.00;;;;;;5075980;28;20297;-71
2021/11/16 11:06:27;;;;;;;2.50;2.20;;;12.80;87.10;;;;;;5085171;28;20219;-72
2021/11/16 11:08:57;;;;;;;4.57;3.77;;;12.80;87.20;;;;;;5075871;28;20304;-71
2021/11/16 11:11:30;;;;;;;3.13;2.93;;;12.80;87.00;;;;;;5082375;28;20516;-71
2021/11/16 11:14:05;;;;;;;5.20;4.03;;;12.80;87.00;;;;;;5082069;28;20221;-71
2021/11/16 11:16:56;;;;;;;2.20;2.10;;;12.90;87.10;;;;;;5086841;28;20229;-71
2021/11/16 11:19:30;;;;;;;2.10;2.00;;;12.90;87.10;;;;;;5082134;28;20216;-71
2021/11/16 11:22:19;;;;;;;2.20;2.03;;;12.90;86.90;;;;;;5086788;28;20625;-71
2021/11/16 11:24:57;;;;;;;2.60;2.40;;;12.90;86.80;;;;;;5085756;28;20244;-71
2021/11/16 11:27:37;;;;;;;3.00;2.50;;;12.90;86.80;;;;;;5085402;28;20224;-71
2021/11/16 11:30:12;;;;;;;2.37;2.20;;;12.80;86.70;;;;;;5086971;28;20738;-71
2021/11/16 11:32:41;;;;;;;10.17;3.80;;;12.80;86.80;;;;;;5086337;28;20250;-70
2021/11/16 11:35:09;;;;;;;3.63;2.43;;;12.70;86.60;;;;;;5085013;28;20220;-71
2021/11/16 11:37:41;;;;;;;2.50;2.37;;;12.70;86.90;;;;;;5085147;28;20221;-71
2021/11/16 11:40:14;;;;;;;1.23;1.23;;;12.70;87.40;;;;;;5086895;28;20307;-71
2021/11/16 11:42:57;;;;;;;1.60;1.50;;;12.60;87.70;;;;;;5088357;28;20221;-71
2021/11/16 11:45:28;;;;;;;2.87;2.67;;;12.60;88.00;;;;;;5081723;28;20221;-70
2021/11/16 11:48:01;;;;;;;4.40;3.10;;;12.70;88.20;;;;;;5086666;28;20225;-71
2021/11/16 11:50:33;;;;;;;6.43;3.93;;;12.60;88.30;;;;;;5082884;28;20555;-71
2021/11/16 11:53:12;;;;;;;2.63;2.27;;;12.60;88.40;;;;;;5081174;28;20205;-71
2021/11/16 11:55:51;;;;;;;1.47;1.47;;;12.60;88.20;;;;;;5078055;28;20210;-71
2021/11/16 11:58:21;;;;;;;2.03;1.93;;;12.60;88.00;;;;;;5078833;28;20493;-71
2021/11/16 12:00:51;;;;;;;2.57;2.03;;;12.50;88.20;;;;;;5083007;28;20208;-70
2021/11/16 12:03:20;;;;;;;2.60;1.87;;;12.50;88.20;;;;;;5079322;28;20214;-71
2021/11/16 12:05:47;;;;;;;1.40;1.30;;;12.50;88.20;;;;;;5089493;28;20267;-71
2021/11/16 12:08:16;;;;;;;5.03;2.80;;;12.40;88.30;;;;;;5084776;28;20662;-71
2021/11/16 12:10:45;;;;;;;2.37;1.33;;;12.40;88.50;;;;;;5076236;28;20210;-71
2021/11/16 12:13:13;;;;;;;2.20;1.60;;;12.40;88.60;;;;;;5081680;28;20205;-70
2021/11/16 12:15:50;;;;;;;1.73;1.63;;;12.40;88.80;;;;;;5075955;28;20271;-71
2021/11/16 12:18:17;;;;;;;2.87;2.37;;;12.40;89.10;;;;;;5077136;28;20252;-71
2021/11/16 12:20:54;;;;;;;2.03;1.93;;;12.40;89.10;;;;;;5083033;28;20523;-71
2021/11/16 12:23:42;;;;;;;2.20;1.57;;;12.40;89.10;;;;;;5077980;28;20663;-71
2021/11/16 12:26:11;;;;;;;2.53;2.20;;;12.40;89.20;;;;;;5074019;28;20225;-71
2021/11/16 12:28:43;;;;;;;3.87;2.30;;;12.50;89.40;;;;;;5077179;28;20248;-71
2021/11/16 12:31:29;;;;;;;3.90;2.63;;;12.50;89.50;;;;;;5084164;28;20221;-71
2021/11/16 12:33:58;;;;;;;2.67;2.47;;;12.50;89.80;;;;;;5088309;28;20200;-71
2021/11/16 12:36:30;;;;;;;1.90;1.77;;;12.50;90.00;;;;;;5080128;28;20220;-71
2021/11/16 12:39:15;;;;;;;3.03;2.17;;;12.60;90.00;;;;;;5088733;28;20694;-71
2021/11/16 12:41:47;;;;;;;2.73;2.43;;;12.50;90.20;;;;;;5083612;28;20724;-71
2021/11/16 12:44:36;;;;;;;1.90;1.73;;;12.50;89.70;;;;;;5082410;28;20216;-72
2021/11/16 12:47:11;;;;;;;8.60;1.80;;;12.50;90.00;;;;;;5082142;28;20623;-71
2021/11/16 12:49:39;;;;;;;21.03;2.10;;;12.50;90.00;;;;;;5085310;28;20205;-71
2021/11/16 12:52:09;;;;;;;3.23;1.90;;;12.60;90.10;;;;;;5082823;28;20214;-72
2021/11/16 12:54:38;;;;;;;4.80;2.07;;;12.60;90.20;;;;;;5083064;28;20323;-71
2021/11/16 12:57:17;;;;;;;4.30;2.30;;;12.60;90.10;;;;;;5087768;28;20896;-71
2021/11/16 12:59:44;;;;;;;3.73;2.57;;;12.60;90.10;;;;;;5084288;28;20212;-71
2021/11/16 13:02:33;;;;;;;1.00;1.00;;;12.60;90.10;;;;;;5081347;28;20315;-72
2021/11/16 13:05:02;;;;;;;2.10;2.00;;;12.50;90.10;;;;;;5083645;28;20209;-72
2021/11/16 13:07:32;;;;;;;4.23;3.83;;;12.50;90.20;;;;;;5086400;28;20216;-72
2021/11/16 13:10:02;;;;;;;3.00;2.10;;;12.50;90.40;;;;;;5083761;28;20213;-72
2021/11/16 13:12:40;;;;;;;2.57;2.37;;;12.50;90.50;;;;;;5079406;28;20221;-72
2021/11/16 13:15:08;;;;;;;1.17;1.10;;;12.40;90.60;;;;;;5079905;28;20248;-71
2021/11/16 13:17:53;;;;;;;1.83;1.73;;;12.50;90.60;;;;;;5090430;28;20266;-71